Terminal Aerodrome Forecast
Issued by NWS

Home | Current Version | Previous Version | Text Only | Print | Product List | Glossary On
Versions: 1 2 3 4 5 6 7 8 9 10 11 12 13 14 15 16 17 18 19
877
FTUS44 KEWX 110358 AAC
TAFSSF
TAF AMD
KSSF 110358Z 1104/1124 00000KT 1SM -DZ BR OVC003
     FM111400 20005KT P6SM OVC009
     FM111800 21007KT P6SM BKN012
     FM112300 19005KT P6SM SCT030=

USA.gov is the U.S. government's official web portal to all federal, state and local government web resources and services.